Terminal Aerodrome Forecast
Issued by NWS

Home | Current Version | Previous Version | Text Only | Print | Product List | Glossary On
Versions: 1 2 3 4 5 6 7 8 9 10 11 12 13 14
000
FTUS46 KHNX 211133
TAFFAT
TAF
KFAT 211133Z 2112/2212 12011G21KT P6SM VCSH SCT035 BKN050
     FM220300 32009KT P6SM BKN035
     FM220800 VRB04KT P6SM SCT035 PROB30 2208/2212 5SM -SHRA BR
      BKN035=

USA.gov is the U.S. government's official web portal to all federal, state and local government web resources and services.